createdAt,value
2023-02-06T00:00:05.217Z,980.90
2023-02-06T00:01:05.091Z,980.88
2023-02-06T00:02:05.081Z,980.86
2023-02-06T00:03:04.788Z,980.88
2023-02-06T00:04:04.741Z,980.86
2023-02-06T00:05:04.841Z,980.87
2023-02-06T00:06:04.662Z,980.85
2023-02-06T00:07:04.751Z,980.85
2023-02-06T00:08:04.539Z,980.83
2023-02-06T00:09:04.488Z,980.83
2023-02-06T00:10:04.527Z,980.85
2023-02-06T00:11:04.776Z,980.81
2023-02-06T00:12:04.353Z,980.85
2023-02-06T00:13:04.584Z,980.87
2023-02-06T00:14:04.264Z,980.85
2023-02-06T00:15:04.211Z,980.85
2023-02-06T00:16:04.261Z,980.88
2023-02-06T00:17:04.307Z,980.91
2023-02-06T00:18:04.063Z,980.90
2023-02-06T00:19:04.324Z,980.87
2023-02-06T00:20:04.090Z,980.91
2023-02-06T00:21:03.915Z,980.91
2023-02-06T00:22:04.139Z,980.91
2023-02-06T00:23:03.817Z,980.96
2023-02-06T00:24:03.960Z,980.95
2023-02-06T00:25:03.731Z,980.92
2023-02-06T00:26:03.686Z,980.93
2023-02-06T00:27:03.626Z,980.95
2023-02-06T00:28:03.827Z,981.03
2023-02-06T00:29:03.835Z,981.01
2023-02-06T00:30:03.692Z,981.05
2023-02-06T00:31:03.552Z,981.06
2023-02-06T00:32:03.388Z,981.04
2023-02-06T00:33:03.350Z,981.03
2023-02-06T00:34:04.543Z,981.01
2023-02-06T00:35:03.309Z,981.03
2023-02-06T00:36:03.333Z,981.04
2023-02-06T00:37:03.156Z,981.10
2023-02-06T00:38:03.127Z,981.08
2023-02-06T00:39:03.370Z,981.10
2023-02-06T00:40:03.200Z,981.06
2023-02-06T00:41:03.172Z,981.05
2023-02-06T00:42:02.918Z,981.02
2023-02-06T00:43:02.873Z,981.07
2023-02-06T00:44:02.829Z,981.09
2023-02-06T00:45:02.887Z,981.08
2023-02-06T00:46:02.782Z,981.05
2023-02-06T00:47:03.114Z,981.05
2023-02-06T00:48:02.683Z,981.05
2023-02-06T00:49:02.584Z,981.03
2023-02-06T00:50:02.720Z,981.01
2023-02-06T00:51:02.492Z,981.01
2023-02-06T00:52:02.523Z,980.97
2023-02-06T00:53:03.009Z,980.95
2023-02-06T00:54:02.346Z,980.97
2023-02-06T00:55:02.301Z,980.88
2023-02-06T00:56:02.349Z,980.92
2023-02-06T00:57:02.202Z,980.88
2023-02-06T00:58:02.374Z,980.89
2023-02-06T00:59:02.145Z,980.86
2023-02-06T01:00:02.076Z,980.87
2023-02-06T01:01:02.021Z,980.82
2023-02-06T01:02:02.226Z,980.81
2023-02-06T01:03:01.967Z,980.78
2023-02-06T01:04:01.996Z,980.77
2023-02-06T01:05:02.050Z,980.80
2023-02-06T01:06:02.018Z,980.79
2023-02-06T01:07:01.725Z,980.74
2023-02-06T01:08:04.274Z,980.77
2023-02-06T01:09:01.638Z,980.76
2023-02-06T01:10:01.864Z,980.76
2023-02-06T01:11:01.846Z,980.82
2023-02-06T01:12:01.483Z,980.80
2023-02-06T01:13:01.853Z,980.86
2023-02-06T01:14:01.397Z,980.90
2023-02-06T01:15:01.456Z,980.88
2023-02-06T01:16:01.339Z,980.93
2023-02-06T01:17:01.275Z,980.91
2023-02-06T01:18:01.275Z,980.96
2023-02-06T01:19:01.188Z,980.91
2023-02-06T01:20:01.288Z,980.95
2023-02-06T01:21:01.063Z,980.94
2023-02-06T01:22:01.012Z,980.95
2023-02-06T01:23:00.962Z,980.95
2023-02-06T01:24:01.120Z,980.94
2023-02-06T01:25:01.170Z,980.96
2023-02-06T01:26:00.982Z,980.94
2023-02-06T01:27:00.772Z,980.94
2023-02-06T01:28:00.757Z,980.95
2023-02-06T01:29:00.972Z,980.94
2023-02-06T01:30:00.633Z,980.97
2023-02-06T01:31:01.902Z,980.96
2023-02-06T01:32:00.533Z,980.98
2023-02-06T01:33:00.774Z,980.95
2023-02-06T01:34:00.470Z,980.98
2023-02-06T01:35:00.586Z,980.97
2023-02-06T01:36:00.349Z,980.95
2023-02-06T01:37:00.593Z,980.99
2023-02-06T01:38:00.263Z,980.97
2023-02-06T01:39:00.204Z,980.96
2023-02-06T01:40:00.167Z,980.90
2023-02-06T01:41:00.214Z,980.95
2023-02-06T01:42:00.095Z,980.91
2023-02-06T01:43:00.228Z,980.85
2023-02-06T01:43:59.961Z,980.91
2023-02-06T01:44:59.910Z,980.90
2023-02-06T01:46:00.050Z,980.95
2023-02-06T01:46:59.829Z,980.96
2023-02-06T01:48:00.097Z,980.94
2023-02-06T01:48:59.924Z,980.94
2023-02-06T01:49:59.683Z,980.95
2023-02-06T01:50:59.627Z,980.92
2023-02-06T01:51:59.891Z,980.89
2023-02-06T01:52:59.577Z,980.90
2023-02-06T01:53:59.707Z,980.90
2023-02-06T01:54:59.455Z,980.86
2023-02-06T01:55:59.389Z,980.85
2023-02-06T01:56:59.567Z,980.83
2023-02-06T01:57:59.521Z,980.83
2023-02-06T01:58:59.255Z,980.81
2023-02-06T01:59:59.334Z,980.76
2023-02-06T02:00:59.178Z,980.71
2023-02-06T02:01:59.145Z,980.72
2023-02-06T02:03:00.182Z,980.73
2023-02-06T02:03:59.008Z,980.77
2023-02-06T02:04:59.164Z,980.72
2023-02-06T02:05:58.912Z,980.76
2023-02-06T02:06:58.868Z,980.71
2023-02-06T02:07:58.813Z,980.73
2023-02-06T02:08:58.984Z,980.72
2023-02-06T02:09:58.734Z,980.71
2023-02-06T02:10:58.796Z,980.67
2023-02-06T02:11:58.629Z,980.66
2023-02-06T02:12:58.581Z,980.63
2023-02-06T02:13:58.549Z,980.64
2023-02-06T02:14:58.643Z,980.55
2023-02-06T02:15:58.492Z,980.56
2023-02-06T02:16:58.642Z,980.56
2023-02-06T02:17:58.338Z,980.52
2023-02-06T02:18:58.296Z,980.54
2023-02-06T02:19:58.660Z,980.53
2023-02-06T02:20:58.216Z,980.51
2023-02-06T02:21:58.268Z,980.53
2023-02-06T02:22:58.132Z,980.46
2023-02-06T02:23:58.057Z,980.45
2023-02-06T02:24:58.005Z,980.43
2023-02-06T02:25:58.096Z,980.39
2023-02-06T02:26:57.910Z,980.42
2023-02-06T02:27:58.160Z,980.44
2023-02-06T02:28:57.812Z,980.38
2023-02-06T02:29:57.774Z,980.40
2023-02-06T02:30:58.026Z,980.40
2023-02-06T02:31:57.886Z,980.41
2023-02-06T02:32:57.836Z,980.38
2023-02-06T02:33:57.585Z,980.37
2023-02-06T02:34:57.525Z,980.38
2023-02-06T02:35:57.479Z,980.34
2023-02-06T02:36:57.662Z,980.37
2023-02-06T02:37:57.421Z,980.31
2023-02-06T02:38:57.471Z,980.31
2023-02-06T02:39:57.294Z,980.29
2023-02-06T02:40:57.546Z,980.26
2023-02-06T02:41:57.497Z,980.28
2023-02-06T02:42:57.213Z,980.30
2023-02-06T02:43:57.304Z,980.34
2023-02-06T02:44:57.045Z,980.33
2023-02-06T02:45:57.369Z,980.32
2023-02-06T02:46:56.968Z,980.32
2023-02-06T02:47:57.125Z,980.31
2023-02-06T02:48:56.853Z,980.30
2023-02-06T02:49:56.937Z,980.29
2023-02-06T02:50:56.758Z,980.28
2023-02-06T02:51:57.000Z,980.24
2023-02-06T02:52:56.852Z,980.27
2023-02-06T02:53:56.604Z,980.28
2023-02-06T02:54:56.662Z,980.32
2023-02-06T02:55:56.511Z,980.32
2023-02-06T02:56:57.498Z,980.31
2023-02-06T02:57:56.454Z,980.31
2023-02-06T02:58:56.488Z,980.34
2023-02-06T02:59:56.321Z,980.30
2023-02-06T03:00:56.313Z,980.31
2023-02-06T03:01:56.235Z,980.35
2023-02-06T03:02:56.183Z,980.27
2023-02-06T03:03:56.368Z,980.33
2023-02-06T03:04:56.125Z,980.28
2023-02-06T03:05:56.027Z,980.26
2023-02-06T03:06:56.133Z,980.25
2023-02-06T03:07:55.945Z,980.19
2023-02-06T03:08:55.882Z,980.19
2023-02-06T03:09:55.877Z,980.17
2023-02-06T03:10:55.958Z,980.13
2023-02-06T03:11:55.747Z,980.14
2023-02-06T03:12:55.781Z,980.14
2023-02-06T03:13:55.647Z,980.20
2023-02-06T03:14:55.611Z,980.19
2023-02-06T03:15:55.796Z,980.25
2023-02-06T03:16:55.498Z,980.27
2023-02-06T03:17:55.501Z,980.24
2023-02-06T03:18:55.402Z,980.29
2023-02-06T03:19:55.352Z,980.33
2023-02-06T03:20:55.303Z,980.30
2023-02-06T03:21:55.424Z,980.33
2023-02-06T03:22:55.207Z,980.33
2023-02-06T03:23:55.234Z,980.32
2023-02-06T03:24:55.117Z,980.35
2023-02-06T03:25:55.066Z,980.33
2023-02-06T03:26:55.064Z,980.31
2023-02-06T03:27:55.183Z,980.35
2023-02-06T03:28:55.072Z,980.39
2023-02-06T03:29:54.875Z,980.46
2023-02-06T03:30:54.865Z,980.42
2023-02-06T03:31:54.845Z,980.42
2023-02-06T03:32:54.790Z,980.36
2023-02-06T03:33:54.704Z,980.41
2023-02-06T03:34:54.811Z,980.41
2023-02-06T03:35:54.618Z,980.41
2023-02-06T03:36:54.537Z,980.42
2023-02-06T03:37:54.521Z,980.39
2023-02-06T03:38:54.472Z,980.37
2023-02-06T03:39:54.542Z,980.35
2023-02-06T03:40:54.345Z,980.36
2023-02-06T03:41:54.342Z,980.40
2023-02-06T03:42:54.247Z,980.39
2023-02-06T03:43:54.264Z,980.37
2023-02-06T03:44:54.225Z,980.40
2023-02-06T03:45:54.204Z,980.33
2023-02-06T03:46:54.058Z,980.35
2023-02-06T03:47:54.016Z,980.36
2023-02-06T03:48:53.974Z,980.35
2023-02-06T03:49:53.994Z,980.34
2023-02-06T03:50:53.891Z,980.31
2023-02-06T03:51:54.022Z,980.30
2023-02-06T03:52:53.766Z,980.34
2023-02-06T03:53:53.721Z,980.35
2023-02-06T03:54:53.832Z,980.43
2023-02-06T03:55:53.628Z,980.40
2023-02-06T03:56:53.757Z,980.40
2023-02-06T03:57:53.529Z,980.41
2023-02-06T03:58:53.548Z,980.43
2023-02-06T03:59:53.439Z,980.48
2023-02-06T04:00:53.567Z,980.48
2023-02-06T04:01:53.341Z,980.48
2023-02-06T04:02:53.376Z,980.50
2023-02-06T04:03:53.243Z,980.48
2023-02-06T04:04:53.194Z,980.53
2023-02-06T04:05:53.150Z,980.51
2023-02-06T04:06:53.203Z,980.49
2023-02-06T04:07:53.052Z,980.51
2023-02-06T04:08:53.422Z,980.53
2023-02-06T04:09:52.956Z,980.56
2023-02-06T04:10:52.914Z,980.57
2023-02-06T04:11:52.936Z,980.56
2023-02-06T04:12:52.816Z,980.59
2023-02-06T04:13:52.965Z,980.60
2023-02-06T04:14:52.744Z,980.63
2023-02-06T04:15:52.760Z,980.59
2023-02-06T04:16:52.617Z,980.57
2023-02-06T04:17:59.825Z,980.57
2023-02-06T04:18:52.524Z,980.65
2023-02-06T04:19:52.581Z,980.67
2023-02-06T04:20:52.644Z,980.67
2023-02-06T04:21:52.377Z,980.67
2023-02-06T04:22:52.398Z,980.64
2023-02-06T04:23:52.279Z,980.63
2023-02-06T04:24:52.415Z,980.62
2023-02-06T04:25:52.217Z,980.62
2023-02-06T04:26:52.223Z,980.63
2023-02-06T04:27:52.133Z,980.64
2023-02-06T04:28:52.245Z,980.61
2023-02-06T04:29:51.989Z,980.60
2023-02-06T04:30:52.126Z,980.65
2023-02-06T04:31:52.108Z,980.62
2023-02-06T04:32:51.861Z,980.63
2023-02-06T04:33:51.800Z,980.62
2023-02-06T04:34:52.894Z,980.67
2023-02-06T04:35:51.706Z,980.65
2023-02-06T04:36:51.898Z,980.63
2023-02-06T04:37:51.627Z,980.64
2023-02-06T04:38:51.556Z,980.58
2023-02-06T04:39:51.706Z,980.51
2023-02-06T04:40:51.460Z,980.52
2023-02-06T04:41:51.514Z,980.60
2023-02-06T04:42:51.366Z,980.59
2023-02-06T04:43:52.652Z,980.55
2023-02-06T04:44:51.266Z,980.54
2023-02-06T04:45:51.342Z,980.56
2023-02-06T04:46:51.177Z,980.49
2023-02-06T04:47:51.360Z,980.52
2023-02-06T04:48:51.090Z,980.53
2023-02-06T04:49:51.030Z,980.53
2023-02-06T04:50:50.981Z,980.58
2023-02-06T04:51:51.180Z,980.52
2023-02-06T04:52:50.884Z,980.52
2023-02-06T04:53:50.891Z,980.47
2023-02-06T04:54:50.816Z,980.46
2023-02-06T04:55:50.737Z,980.39
2023-02-06T04:56:50.815Z,980.40
2023-02-06T04:57:50.665Z,980.37
2023-02-06T04:58:50.768Z,980.35
2023-02-06T04:59:50.547Z,980.37
2023-02-06T05:00:50.499Z,980.39
2023-02-06T05:01:50.486Z,980.41
2023-02-06T05:02:50.637Z,980.31
2023-02-06T05:03:50.602Z,980.28
2023-02-06T05:04:50.350Z,980.24
2023-02-06T05:05:50.254Z,980.20
2023-02-06T05:06:50.207Z,980.26
2023-02-06T05:07:50.376Z,980.31
2023-02-06T05:08:50.116Z,980.28
2023-02-06T05:09:50.175Z,980.34
2023-02-06T05:10:50.010Z,980.24
2023-02-06T05:11:49.988Z,980.22
2023-02-06T05:12:49.911Z,980.16
2023-02-06T05:13:50.002Z,980.23
2023-02-06T05:14:49.876Z,980.30
2023-02-06T05:15:49.823Z,980.30
2023-02-06T05:16:49.717Z,980.31
2023-02-06T05:17:49.670Z,980.33
2023-02-06T05:18:49.618Z,980.31
2023-02-06T05:19:49.633Z,980.26
2023-02-06T05:20:49.537Z,980.29
2023-02-06T05:21:49.654Z,980.26
2023-02-06T05:22:49.438Z,980.28
2023-02-06T05:23:49.377Z,980.27
2023-02-06T05:24:49.463Z,980.28
2023-02-06T05:25:49.524Z,980.29
2023-02-06T05:26:49.478Z,980.31
2023-02-06T05:27:49.261Z,980.29
2023-02-06T05:28:49.160Z,980.30
2023-02-06T05:29:49.086Z,980.28
2023-02-06T05:30:49.375Z,980.28
2023-02-06T05:31:49.010Z,980.28
2023-02-06T05:32:49.122Z,980.30
2023-02-06T05:33:51.849Z,980.34
2023-02-06T05:34:48.847Z,980.30
2023-02-06T05:35:48.793Z,980.36
2023-02-06T05:36:49.156Z,980.42
2023-02-06T05:37:48.705Z,980.43
2023-02-06T05:38:48.755Z,980.44
2023-02-06T05:39:48.617Z,980.42
2023-02-06T05:40:48.767Z,980.44
2023-02-06T05:41:48.505Z,980.42
2023-02-06T05:42:48.697Z,980.45
2023-02-06T05:43:48.417Z,980.41
2023-02-06T05:44:48.490Z,980.40
2023-02-06T05:45:48.323Z,980.33
2023-02-06T05:46:48.506Z,980.41
2023-02-06T05:47:48.225Z,980.40
2023-02-06T05:48:48.522Z,980.40
2023-02-06T05:49:48.126Z,980.43
2023-02-06T05:50:48.071Z,980.51
2023-02-06T05:51:48.019Z,980.49
2023-02-06T05:52:48.164Z,980.52
2023-02-06T05:53:47.930Z,980.53
2023-02-06T05:54:48.167Z,980.53
2023-02-06T05:55:47.828Z,980.54
2023-02-06T05:56:47.791Z,980.59
2023-02-06T05:57:47.737Z,980.56
2023-02-06T05:58:47.780Z,980.54
2023-02-06T05:59:48.882Z,980.55
2023-02-06T06:03:47.769Z,980.56
2023-02-06T06:04:47.508Z,980.56
2023-02-06T06:05:47.623Z,980.59
2023-02-06T06:06:47.332Z,980.57
2023-02-06T06:07:47.272Z,980.53
2023-02-06T06:08:47.220Z,980.51
2023-02-06T06:09:47.352Z,980.50
2023-02-06T06:10:47.122Z,980.53
2023-02-06T06:11:47.161Z,980.49
2023-02-06T06:12:47.024Z,980.51
2023-02-06T06:13:46.976Z,980.52
2023-02-06T06:14:46.922Z,980.55
2023-02-06T06:15:47.205Z,980.47
2023-02-06T06:16:46.828Z,980.50
2023-02-06T06:17:46.997Z,980.40
2023-02-06T06:18:46.731Z,980.44
2023-02-06T06:19:46.808Z,980.39
2023-02-06T06:20:46.632Z,980.42
2023-02-06T06:21:46.827Z,980.40
2023-02-06T06:22:46.543Z,980.36
2023-02-06T06:23:46.643Z,980.37
2023-02-06T06:24:46.642Z,980.36
2023-02-06T06:25:46.392Z,980.34
2023-02-06T06:26:46.669Z,980.33
2023-02-06T06:27:46.309Z,980.31
2023-02-06T06:28:46.360Z,980.34
2023-02-06T06:29:46.204Z,980.31
2023-02-06T06:30:46.186Z,980.35
2023-02-06T06:31:46.355Z,980.36
2023-02-06T06:32:46.057Z,980.30
2023-02-06T06:33:46.101Z,980.33
2023-02-06T06:34:45.962Z,980.29
2023-02-06T06:35:46.115Z,980.34
2023-02-06T06:36:45.871Z,980.30
2023-02-06T06:37:46.126Z,980.32
2023-02-06T06:38:45.767Z,980.26
2023-02-06T06:39:45.954Z,980.28
2023-02-06T06:40:45.683Z,980.32
2023-02-06T06:41:45.614Z,980.27
2023-02-06T06:42:45.571Z,980.28
2023-02-06T06:43:45.557Z,980.29
2023-02-06T06:44:45.522Z,980.24
2023-02-06T06:45:45.774Z,980.21
2023-02-06T06:46:45.382Z,980.21
2023-02-06T06:47:45.326Z,980.21
2023-02-06T06:48:45.380Z,980.21
2023-02-06T06:49:45.237Z,980.21
2023-02-06T06:50:45.398Z,980.21
2023-02-06T06:51:45.451Z,980.24
2023-02-06T06:52:45.082Z,980.27
2023-02-06T06:53:45.034Z,980.31
2023-02-06T06:54:45.013Z,980.30
2023-02-06T06:55:44.945Z,980.34
2023-02-06T06:56:45.031Z,980.34
2023-02-06T06:57:44.859Z,980.33
2023-02-06T06:58:44.802Z,980.36
2023-02-06T06:59:44.805Z,980.38
2023-02-06T07:00:44.727Z,980.38
2023-02-06T07:01:44.861Z,980.42
2023-02-06T07:02:44.632Z,980.42
2023-02-06T07:03:44.722Z,980.43
2023-02-06T07:04:44.514Z,980.40
2023-02-06T07:05:44.534Z,980.39
2023-02-06T07:06:44.422Z,980.42
2023-02-06T07:07:45.572Z,980.45
2023-02-06T07:08:44.347Z,980.52
2023-02-06T07:09:44.262Z,980.51
2023-02-06T07:10:44.227Z,980.54
2023-02-06T07:11:44.174Z,980.55
2023-02-06T07:12:44.228Z,980.51
2023-02-06T07:13:44.283Z,980.51
2023-02-06T07:14:44.029Z,980.51
2023-02-06T07:15:43.974Z,980.47
2023-02-06T07:16:44.045Z,980.46
2023-02-06T07:17:43.882Z,980.48
2023-02-06T07:18:44.066Z,980.44
2023-02-06T07:19:43.815Z,980.45
2023-02-06T07:20:43.738Z,980.42
2023-02-06T07:21:43.884Z,980.42
2023-02-06T07:22:43.639Z,980.50
2023-02-06T07:23:43.693Z,980.48
2023-02-06T07:24:43.551Z,980.47
2023-02-06T07:25:47.035Z,980.54
2023-02-06T07:26:43.662Z,980.55
2023-02-06T07:27:43.464Z,980.56
2023-02-06T07:28:43.527Z,980.67
2023-02-06T07:29:43.311Z,980.73
2023-02-06T07:30:43.299Z,980.69
2023-02-06T07:31:43.260Z,980.77
2023-02-06T07:32:46.090Z,980.81
2023-02-06T07:33:43.105Z,980.77
2023-02-06T07:34:43.307Z,980.82
2023-02-06T07:35:43.012Z,980.75
2023-02-06T07:36:42.966Z,980.75
2023-02-06T07:37:42.914Z,980.81
2023-02-06T07:38:42.985Z,980.75
2023-02-06T07:39:42.823Z,980.73
2023-02-06T07:40:45.443Z,980.74
2023-02-06T07:41:42.727Z,980.70
2023-02-06T07:42:42.805Z,980.74
2023-02-06T07:43:42.627Z,980.76
2023-02-06T07:44:42.762Z,980.70
2023-02-06T07:45:42.543Z,980.70
2023-02-06T07:46:42.837Z,980.71
2023-02-06T07:47:42.433Z,980.69
2023-02-06T07:48:42.406Z,980.65
2023-02-06T07:49:42.452Z,980.64
2023-02-06T07:50:42.291Z,980.63
2023-02-06T07:51:42.268Z,980.62
2023-02-06T07:52:42.189Z,980.60
2023-02-06T07:53:42.278Z,980.60
2023-02-06T07:54:42.093Z,980.55
2023-02-06T07:55:42.289Z,980.57
2023-02-06T07:56:42.001Z,980.58
2023-02-06T07:57:42.239Z,980.60
2023-02-06T07:58:42.113Z,980.63
2023-02-06T07:59:41.856Z,980.65
2023-02-06T08:00:41.917Z,980.66
2023-02-06T08:01:41.782Z,980.63
2023-02-06T08:02:42.137Z,980.61
2023-02-06T08:03:41.667Z,980.60
2023-02-06T08:04:41.806Z,980.59
2023-02-06T08:05:41.576Z,980.59
2023-02-06T08:06:41.764Z,980.65
2023-02-06T08:07:41.479Z,980.68
2023-02-06T08:08:41.581Z,980.71
2023-02-06T08:09:41.375Z,980.67
2023-02-06T08:10:41.520Z,980.72
2023-02-06T08:11:41.279Z,980.67
2023-02-06T08:12:41.398Z,980.71
2023-02-06T08:13:41.180Z,980.74
2023-02-06T08:14:41.138Z,980.75
2023-02-06T08:15:41.084Z,980.75
2023-02-06T08:16:41.250Z,980.80
2023-02-06T08:17:40.985Z,980.81
2023-02-06T08:18:41.259Z,980.82
2023-02-06T08:19:40.946Z,980.85
2023-02-06T08:20:40.840Z,980.84
2023-02-06T08:21:40.880Z,980.80
2023-02-06T08:22:40.750Z,980.73
2023-02-06T08:23:40.888Z,980.69
2023-02-06T08:24:40.664Z,980.67
2023-02-06T08:25:40.625Z,980.65
2023-02-06T08:26:40.566Z,980.67
2023-02-06T08:27:40.678Z,980.65
2023-02-06T08:28:42.272Z,980.66
2023-02-06T08:29:40.696Z,980.69
2023-02-06T08:30:40.453Z,980.72
2023-02-06T08:31:40.425Z,980.71
2023-02-06T08:32:40.514Z,980.69
2023-02-06T08:33:40.222Z,980.72
2023-02-06T08:34:40.258Z,980.75
2023-02-06T08:35:40.226Z,980.75
2023-02-06T08:36:40.607Z,980.76
2023-02-06T08:37:40.142Z,980.76
2023-02-06T08:38:40.029Z,980.81
2023-02-06T08:39:39.966Z,980.83
2023-02-06T08:40:40.003Z,980.78
2023-02-06T08:41:39.973Z,980.81
2023-02-06T08:42:39.990Z,980.78
2023-02-06T08:43:39.748Z,980.72
2023-02-06T08:44:39.988Z,980.70
2023-02-06T08:45:39.656Z,980.69
2023-02-06T08:46:39.819Z,980.68
2023-02-06T08:47:39.555Z,980.67
2023-02-06T08:48:39.514Z,980.72
2023-02-06T08:49:39.628Z,980.72
2023-02-06T08:50:39.413Z,980.72
2023-02-06T08:51:40.556Z,980.75
2023-02-06T08:52:39.585Z,980.80
2023-02-06T08:53:39.343Z,980.79
2023-02-06T08:54:39.222Z,980.78
2023-02-06T08:55:39.597Z,980.80
2023-02-06T08:56:39.125Z,980.81
2023-02-06T08:57:39.368Z,980.73
2023-02-06T08:58:39.057Z,980.75
2023-02-06T08:59:38.987Z,980.75
2023-02-06T09:00:38.938Z,980.75
2023-02-06T09:01:39.147Z,980.73
2023-02-06T09:02:38.918Z,980.76
2023-02-06T09:03:38.898Z,980.77
2023-02-06T09:04:38.778Z,980.75
2023-02-06T09:05:38.703Z,980.79
2023-02-06T09:06:38.917Z,980.76
2023-02-06T09:07:38.609Z,980.74
2023-02-06T09:08:38.732Z,980.77
2023-02-06T09:09:38.782Z,980.80
2023-02-06T09:10:38.743Z,980.75
2023-02-06T09:11:38.549Z,980.72
2023-02-06T09:12:38.371Z,980.73
2023-02-06T09:13:38.568Z,980.71
2023-02-06T09:14:38.275Z,980.72
2023-02-06T09:15:38.614Z,980.66
2023-02-06T09:16:38.196Z,980.63
2023-02-06T09:17:38.129Z,980.62
2023-02-06T09:18:38.189Z,980.62
2023-02-06T09:19:38.036Z,980.66
2023-02-06T09:20:38.301Z,980.64
2023-02-06T09:21:37.940Z,980.64
2023-02-06T09:22:38.109Z,980.63
2023-02-06T09:23:37.838Z,980.62
2023-02-06T09:24:37.930Z,980.59
2023-02-06T09:25:37.885Z,980.54
2023-02-06T09:26:44.813Z,980.55
2023-02-06T09:27:37.699Z,980.57
2023-02-06T09:28:37.608Z,980.59
2023-02-06T09:29:37.805Z,980.60
2023-02-06T09:30:37.916Z,980.62
2023-02-06T09:31:37.485Z,980.66
2023-02-06T09:32:37.568Z,980.66
2023-02-06T09:33:37.374Z,980.69
2023-02-06T09:34:37.316Z,980.69
2023-02-06T09:35:37.840Z,980.67
2023-02-06T09:36:37.227Z,980.71
2023-02-06T09:37:38.428Z,980.72
2023-02-06T09:38:37.129Z,980.69
2023-02-06T09:39:37.209Z,980.70
2023-02-06T09:40:37.266Z,980.67
2023-02-06T09:41:37.023Z,980.63
2023-02-06T09:42:36.935Z,980.68
2023-02-06T09:43:37.062Z,980.65
2023-02-06T09:44:36.872Z,980.66
2023-02-06T09:45:36.979Z,980.66
2023-02-06T09:46:36.789Z,980.65
2023-02-06T09:47:36.857Z,980.64
2023-02-06T09:48:36.652Z,980.64
2023-02-06T09:49:36.887Z,980.63
2023-02-06T09:50:36.556Z,980.60
2023-02-06T09:51:36.518Z,980.65
2023-02-06T09:52:40.235Z,980.66
2023-02-06T09:53:58.614Z,980.67
2023-02-06T09:54:36.366Z,980.71
2023-02-06T09:55:36.818Z,980.70
2023-02-06T09:56:36.277Z,980.67
2023-02-06T09:57:36.525Z,980.69
2023-02-06T09:58:36.213Z,980.65
2023-02-06T09:59:36.333Z,980.62
2023-02-06T10:00:36.085Z,980.63
2023-02-06T10:01:36.422Z,980.70
2023-02-06T10:02:36.151Z,980.64
2023-02-06T10:03:35.948Z,980.63
2023-02-06T10:04:36.372Z,980.64
2023-02-06T10:05:36.109Z,980.63
2023-02-06T10:06:35.995Z,980.65
2023-02-06T10:07:35.762Z,980.63
2023-02-06T10:08:35.714Z,980.69
2023-02-06T10:09:35.791Z,980.70
2023-02-06T10:10:35.790Z,980.77
2023-02-06T10:11:35.806Z,980.73
2023-02-06T10:12:35.575Z,980.68
2023-02-06T10:13:35.618Z,980.69
2023-02-06T10:14:35.461Z,980.68
2023-02-06T10:15:35.892Z,980.63
2023-02-06T10:16:35.481Z,980.60
2023-02-06T10:17:36.470Z,980.57
2023-02-06T10:18:35.242Z,980.60
2023-02-06T10:19:35.188Z,980.63
2023-02-06T10:20:35.148Z,980.61
2023-02-06T10:21:35.164Z,980.59
2023-02-06T10:22:35.052Z,980.59
2023-02-06T10:23:35.287Z,980.57
2023-02-06T10:24:34.955Z,980.58
2023-02-06T10:25:35.280Z,980.59
2023-02-06T10:26:35.108Z,980.62
2023-02-06T10:27:34.836Z,980.62
2023-02-06T10:28:35.128Z,980.63
2023-02-06T10:29:34.733Z,980.65
2023-02-06T10:30:34.679Z,980.57
2023-02-06T10:31:34.761Z,980.53
2023-02-06T10:32:34.751Z,980.50
2023-02-06T10:33:34.531Z,980.53
2023-02-06T10:34:34.756Z,980.48
2023-02-06T10:35:34.837Z,980.50
2023-02-06T10:36:35.459Z,980.53
2023-02-06T10:37:34.468Z,980.53
2023-02-06T10:38:34.304Z,980.55
2023-02-06T10:39:34.293Z,980.53
2023-02-06T10:40:34.200Z,980.48
2023-02-06T10:41:34.174Z,980.47
2023-02-06T10:42:34.339Z,980.43
2023-02-06T10:43:34.063Z,980.45
2023-02-06T10:44:35.071Z,980.44
2023-02-06T10:45:34.177Z,980.39
2023-02-06T10:46:34.140Z,980.36
2023-02-06T10:47:33.886Z,980.31
2023-02-06T10:48:34.958Z,980.31
2023-02-06T10:49:33.840Z,980.28
2023-02-06T10:50:33.972Z,980.27
2023-02-06T10:51:33.696Z,980.30
2023-02-06T10:52:33.983Z,980.22
2023-02-06T10:53:33.605Z,980.26
2023-02-06T10:54:34.517Z,980.21
2023-02-06T10:55:33.504Z,980.21
2023-02-06T10:56:33.786Z,980.19
2023-02-06T10:57:33.409Z,980.17
2023-02-06T10:58:33.477Z,980.16
2023-02-06T10:59:33.316Z,980.15
2023-02-06T11:00:33.753Z,980.14
2023-02-06T11:01:33.281Z,980.14
2023-02-06T11:02:33.355Z,980.14
2023-02-06T11:03:33.130Z,980.10
2023-02-06T11:04:34.130Z,980.11
2023-02-06T11:05:33.255Z,980.09
2023-02-06T11:06:33.301Z,980.06
2023-02-06T11:07:33.263Z,980.08
2023-02-06T11:08:32.901Z,980.05
2023-02-06T11:09:32.867Z,980.05
2023-02-06T11:10:32.814Z,979.99
2023-02-06T11:11:33.079Z,980.00
2023-02-06T11:12:32.751Z,979.95
2023-02-06T11:13:32.885Z,980.00
2023-02-06T11:14:32.625Z,979.94
2023-02-06T11:15:32.582Z,979.93
2023-02-06T11:16:32.717Z,979.91
2023-02-06T11:17:32.757Z,979.83
2023-02-06T11:18:32.718Z,979.87
2023-02-06T11:19:32.391Z,979.84
2023-02-06T11:20:33.512Z,979.86
2023-02-06T11:21:32.328Z,979.90
2023-02-06T11:22:38.869Z,979.88
2023-02-06T11:23:32.290Z,979.88
2023-02-06T11:24:32.255Z,979.87
2023-02-06T11:25:32.156Z,979.89
2023-02-06T11:26:32.464Z,979.84
2023-02-06T11:27:32.051Z,979.88
2023-02-06T11:28:32.081Z,979.87
2023-02-06T11:29:32.139Z,979.81
2023-02-06T11:30:32.178Z,979.78
2023-02-06T11:31:31.923Z,979.82
2023-02-06T11:32:31.787Z,979.80
2023-02-06T11:33:31.913Z,979.82
2023-02-06T11:34:31.696Z,979.78
2023-02-06T11:35:31.722Z,979.78
2023-02-06T11:36:31.600Z,979.77
2023-02-06T11:37:32.426Z,979.75
2023-02-06T11:38:31.509Z,979.71
2023-02-06T11:39:31.545Z,979.67
2023-02-06T11:40:31.419Z,979.69
2023-02-06T11:41:31.557Z,979.66
2023-02-06T11:42:31.326Z,979.68
2023-02-06T11:43:31.280Z,979.65
2023-02-06T11:44:31.228Z,979.63
2023-02-06T11:45:31.663Z,979.62
2023-02-06T11:46:31.137Z,979.63
2023-02-06T11:47:31.600Z,979.62
2023-02-06T11:48:31.052Z,979.64
2023-02-06T11:49:31.005Z,979.60
2023-02-06T11:50:30.955Z,979.62
2023-02-06T11:51:31.026Z,979.64
2023-02-06T11:52:30.882Z,979.66
2023-02-06T11:53:31.029Z,979.65
2023-02-06T11:54:30.772Z,979.65
2023-02-06T11:55:30.726Z,979.60
2023-02-06T11:56:30.846Z,979.58
2023-02-06T11:57:30.724Z,979.62
2023-02-06T11:58:30.658Z,979.61
2023-02-06T11:59:30.541Z,979.62
2023-02-06T12:00:30.683Z,979.62
2023-02-06T12:01:30.439Z,979.61
2023-02-06T12:02:30.643Z,979.61
2023-02-06T12:03:30.436Z,979.68
2023-02-06T12:04:30.714Z,979.64
2023-02-06T12:05:30.261Z,979.64
2023-02-06T12:06:30.340Z,979.57
2023-02-06T12:07:30.173Z,979.59
2023-02-06T12:08:32.176Z,979.56
2023-02-06T12:09:30.079Z,979.59
2023-02-06T12:10:30.292Z,979.57
2023-02-06T12:11:29.984Z,979.54
2023-02-06T12:12:29.938Z,979.57
2023-02-06T12:13:29.893Z,979.57
2023-02-06T12:14:30.063Z,979.56
2023-02-06T12:15:45.559Z,979.50
2023-02-06T12:16:30.155Z,979.50
2023-02-06T12:17:29.704Z,979.45
2023-02-06T12:18:29.665Z,979.51
2023-02-06T12:19:29.624Z,979.44
2023-02-06T12:20:30.731Z,979.41
2023-02-06T12:21:29.529Z,979.41
2023-02-06T12:22:29.717Z,979.38
2023-02-06T12:23:29.444Z,979.38
2023-02-06T12:24:29.404Z,979.39
2023-02-06T12:25:29.540Z,979.35
2023-02-06T12:26:29.396Z,979.35
2023-02-06T12:27:29.335Z,979.35
2023-02-06T12:28:29.253Z,979.33
2023-02-06T12:29:29.346Z,979.30
2023-02-06T12:30:29.133Z,979.29